sensor_id;sensor_type;location;lat;lon;timestamp;P1;durP1;ratioP1;P2;durP2;ratioP2
61385;SDS011;47256;18.904;-99.054;2022-09-30T00:01:34;9.82;;;5.78;;
61385;SDS011;47256;18.904;-99.054;2022-09-30T00:04:02;12.50;;;4.70;;
61385;SDS011;47256;18.904;-99.054;2022-09-30T00:06:29;12.07;;;4.95;;
61385;SDS011;47256;18.904;-99.054;2022-09-30T00:09:04;12.30;;;5.20;;
61385;SDS011;47256;18.904;-99.054;2022-09-30T00:11:34;12.13;;;6.13;;
61385;SDS011;47256;18.904;-99.054;2022-09-30T00:14:03;14.10;;;6.82;;
61385;SDS011;47256;18.904;-99.054;2022-09-30T00:16:34;16.65;;;7.78;;
61385;SDS011;47256;18.904;-99.054;2022-09-30T00:19:02;17.27;;;8.88;;
61385;SDS011;47256;18.904;-99.054;2022-09-30T00:21:31;20.05;;;9.35;;
61385;SDS011;47256;18.904;-99.054;2022-09-30T00:24:02;11.77;;;6.55;;
61385;SDS011;47256;18.904;-99.054;2022-09-30T00:26:30;17.73;;;6.15;;
61385;SDS011;47256;18.904;-99.054;2022-09-30T00:29:00;15.38;;;5.75;;
61385;SDS011;47256;18.904;-99.054;2022-09-30T00:31:28;6.78;;;5.35;;
61385;SDS011;47256;18.904;-99.054;2022-09-30T00:33:57;11.15;;;5.43;;
61385;SDS011;47256;18.904;-99.054;2022-09-30T00:39:14;10.77;;;7.25;;
61385;SDS011;47256;18.904;-99.054;2022-09-30T00:41:47;13.40;;;5.80;;
61385;SDS011;47256;18.904;-99.054;2022-09-30T00:52:43;23.05;;;9.77;;
61385;SDS011;47256;18.904;-99.054;2022-09-30T00:57:49;33.45;;;15.05;;
61385;SDS011;47256;18.904;-99.054;2022-09-30T01:00:19;14.32;;;7.70;;
61385;SDS011;47256;18.904;-99.054;2022-09-30T01:02:46;14.65;;;8.45;;
61385;SDS011;47256;18.904;-99.054;2022-09-30T01:05:14;16.20;;;8.25;;
61385;SDS011;47256;18.904;-99.054;2022-09-30T01:10:34;13.30;;;6.53;;
61385;SDS011;47256;18.904;-99.054;2022-09-30T01:13:04;13.82;;;6.30;;
61385;SDS011;47256;18.904;-99.054;2022-09-30T01:15:35;16.60;;;7.35;;
61385;SDS011;47256;18.904;-99.054;2022-09-30T01:41:06;16.60;;;7.50;;
61385;SDS011;47256;18.904;-99.054;2022-09-30T01:44:02;12.32;;;7.00;;
61385;SDS011;47256;18.904;-99.054;2022-09-30T01:46:54;10.35;;;7.05;;
61385;SDS011;47256;18.904;-99.054;2022-09-30T01:49:40;15.95;;;6.53;;
61385;SDS011;47256;18.904;-99.054;2022-09-30T01:55:37;18.55;;;7.68;;
61385;SDS011;47256;18.904;-99.054;2022-09-30T01:58:26;10.00;;;7.15;;
61385;SDS011;47256;18.904;-99.054;2022-09-30T02:01:10;12.15;;;7.10;;
61385;SDS011;47256;18.904;-99.054;2022-09-30T02:03:50;14.52;;;8.18;;
61385;SDS011;47256;18.904;-99.054;2022-09-30T02:06:34;15.93;;;7.82;;
61385;SDS011;47256;18.904;-99.054;2022-09-30T02:09:15;13.90;;;8.07;;
61385;SDS011;47256;18.904;-99.054;2022-09-30T02:11:53;14.82;;;7.65;;
61385;SDS011;47256;18.904;-99.054;2022-09-30T02:14:30;10.68;;;7.43;;
61385;SDS011;47256;18.904;-99.054;2022-09-30T02:17:13;12.13;;;7.18;;
61385;SDS011;47256;18.904;-99.054;2022-09-30T02:20:20;17.25;;;8.50;;
61385;SDS011;47256;18.904;-99.054;2022-09-30T02:22:54;24.10;;;8.38;;
61385;SDS011;47256;18.904;-99.054;2022-09-30T02:25:48;15.93;;;8.13;;
61385;SDS011;47256;18.904;-99.054;2022-09-30T02:28:40;10.57;;;7.68;;
61385;SDS011;47256;18.904;-99.054;2022-09-30T02:31:16;13.40;;;7.18;;
61385;SDS011;47256;18.904;-99.054;2022-09-30T02:33:49;12.73;;;6.40;;
61385;SDS011;47256;18.904;-99.054;2022-09-30T02:40:33;14.40;;;8.48;;
61385;SDS011;47256;18.904;-99.054;2022-09-30T02:42:43;14.07;;;7.57;;
61385;SDS011;47256;18.904;-99.054;2022-09-30T02:45:12;11.98;;;7.05;;
61385;SDS011;47256;18.904;-99.054;2022-09-30T02:47:52;10.30;;;6.65;;
61385;SDS011;47256;18.904;-99.054;2022-09-30T02:50:57;9.27;;;5.60;;
61385;SDS011;47256;18.904;-99.054;2022-09-30T02:53:57;10.52;;;5.40;;
61385;SDS011;47256;18.904;-99.054;2022-09-30T02:59:09;12.35;;;5.55;;
61385;SDS011;47256;18.904;-99.054;2022-09-30T03:01:39;7.82;;;5.18;;
61385;SDS011;47256;18.904;-99.054;2022-09-30T03:04:14;10.73;;;4.95;;
61385;SDS011;47256;18.904;-99.054;2022-09-30T03:06:48;19.00;;;4.70;;
61385;SDS011;47256;18.904;-99.054;2022-09-30T03:09:23;10.55;;;4.57;;
61385;SDS011;47256;18.904;-99.054;2022-09-30T03:11:58;9.75;;;4.97;;
61385;SDS011;47256;18.904;-99.054;2022-09-30T03:23:22;11.98;;;5.13;;
61385;SDS011;47256;18.904;-99.054;2022-09-30T03:28:51;10.70;;;4.82;;
61385;SDS011;47256;18.904;-99.054;2022-09-30T03:34:29;5.35;;;3.60;;
61385;SDS011;47256;18.904;-99.054;2022-09-30T03:40:07;8.30;;;4.03;;
61385;SDS011;47256;18.904;-99.054;2022-09-30T03:45:59;12.50;;;3.95;;
61385;SDS011;47256;18.904;-99.054;2022-09-30T03:48:36;13.88;;;3.35;;
61385;SDS011;47256;18.904;-99.054;2022-09-30T03:51:07;17.85;;;4.72;;
61385;SDS011;47256;18.904;-99.054;2022-09-30T03:53:39;9.68;;;4.82;;
61385;SDS011;47256;18.904;-99.054;2022-09-30T03:56:09;16.50;;;4.32;;
61385;SDS011;47256;18.904;-99.054;2022-09-30T03:58:37;15.98;;;4.20;;
61385;SDS011;47256;18.904;-99.054;2022-09-30T04:01:18;9.55;;;3.42;;
61385;SDS011;47256;18.904;-99.054;2022-09-30T04:03:47;13.73;;;4.57;;
61385;SDS011;47256;18.904;-99.054;2022-09-30T04:06:22;12.85;;;6.00;;
61385;SDS011;47256;18.904;-99.054;2022-09-30T04:08:50;30.88;;;13.20;;
61385;SDS011;47256;18.904;-99.054;2022-09-30T04:11:21;25.67;;;9.43;;
61385;SDS011;47256;18.904;-99.054;2022-09-30T04:13:48;14.65;;;8.93;;
61385;SDS011;47256;18.904;-99.054;2022-09-30T04:16:15;20.85;;;7.97;;
61385;SDS011;47256;18.904;-99.054;2022-09-30T04:18:42;12.23;;;7.13;;
61385;SDS011;47256;18.904;-99.054;2022-09-30T04:21:11;12.98;;;6.55;;
61385;SDS011;47256;18.904;-99.054;2022-09-30T04:23:41;18.33;;;7.57;;
61385;SDS011;47256;18.904;-99.054;2022-09-30T04:26:10;18.08;;;8.25;;
61385;SDS011;47256;18.904;-99.054;2022-09-30T04:28:38;17.73;;;7.40;;
61385;SDS011;47256;18.904;-99.054;2022-09-30T04:31:05;15.30;;;7.80;;
61385;SDS011;47256;18.904;-99.054;2022-09-30T04:33:34;17.20;;;8.00;;
61385;SDS011;47256;18.904;-99.054;2022-09-30T04:36:02;16.85;;;7.38;;
61385;SDS011;47256;18.904;-99.054;2022-09-30T04:38:30;19.38;;;8.07;;
61385;SDS011;47256;18.904;-99.054;2022-09-30T04:41:00;14.57;;;7.78;;
61385;SDS011;47256;18.904;-99.054;2022-09-30T04:43:31;19.65;;;9.40;;
61385;SDS011;47256;18.904;-99.054;2022-09-30T04:46:01;19.48;;;9.60;;
61385;SDS011;47256;18.904;-99.054;2022-09-30T04:48:31;15.23;;;9.05;;
61385;SDS011;47256;18.904;-99.054;2022-09-30T04:50:58;19.00;;;9.35;;
61385;SDS011;47256;18.904;-99.054;2022-09-30T04:53:25;16.17;;;8.38;;
61385;SDS011;47256;18.904;-99.054;2022-09-30T04:55:59;17.50;;;8.48;;
61385;SDS011;47256;18.904;-99.054;2022-09-30T04:58:28;17.98;;;7.53;;
61385;SDS011;47256;18.904;-99.054;2022-09-30T05:01:07;14.75;;;8.27;;
61385;SDS011;47256;18.904;-99.054;2022-09-30T05:03:38;18.55;;;8.30;;
61385;SDS011;47256;18.904;-99.054;2022-09-30T05:06:13;15.75;;;7.70;;
61385;SDS011;47256;18.904;-99.054;2022-09-30T05:08:40;14.68;;;7.78;;
61385;SDS011;47256;18.904;-99.054;2022-09-30T05:11:10;18.35;;;7.93;;
61385;SDS011;47256;18.904;-99.054;2022-09-30T05:13:42;13.95;;;8.43;;
61385;SDS011;47256;18.904;-99.054;2022-09-30T05:16:10;16.58;;;9.40;;
61385;SDS011;47256;18.904;-99.054;2022-09-30T05:18:39;22.88;;;9.35;;
61385;SDS011;47256;18.904;-99.054;2022-09-30T05:21:15;19.27;;;9.60;;
61385;SDS011;47256;18.904;-99.054;2022-09-30T05:23:45;15.43;;;9.15;;
61385;SDS011;47256;18.904;-99.054;2022-09-30T05:26:15;16.02;;;8.18;;
61385;SDS011;47256;18.904;-99.054;2022-09-30T05:28:44;23.83;;;7.57;;
61385;SDS011;47256;18.904;-99.054;2022-09-30T05:31:11;12.93;;;7.45;;
61385;SDS011;47256;18.904;-99.054;2022-09-30T05:33:38;14.05;;;7.85;;
61385;SDS011;47256;18.904;-99.054;2022-09-30T05:36:08;13.13;;;7.50;;
61385;SDS011;47256;18.904;-99.054;2022-09-30T05:38:38;21.27;;;9.30;;
61385;SDS011;47256;18.904;-99.054;2022-09-30T05:41:09;11.40;;;7.30;;
61385;SDS011;47256;18.904;-99.054;2022-09-30T05:43:39;11.52;;;6.53;;
61385;SDS011;47256;18.904;-99.054;2022-09-30T05:46:10;11.60;;;6.70;;
61385;SDS011;47256;18.904;-99.054;2022-09-30T05:48:37;10.32;;;6.32;;
61385;SDS011;47256;18.904;-99.054;2022-09-30T05:51:08;9.65;;;6.00;;
61385;SDS011;47256;18.904;-99.054;2022-09-30T05:53:36;15.93;;;6.82;;
61385;SDS011;47256;18.904;-99.054;2022-09-30T05:56:05;10.55;;;6.50;;
61385;SDS011;47256;18.904;-99.054;2022-09-30T05:58:34;10.73;;;6.03;;
61385;SDS011;47256;18.904;-99.054;2022-09-30T06:01:04;7.60;;;5.35;;
61385;SDS011;47256;18.904;-99.054;2022-09-30T06:03:33;7.20;;;5.05;;
61385;SDS011;47256;18.904;-99.054;2022-09-30T06:06:03;7.55;;;4.75;;
61385;SDS011;47256;18.904;-99.054;2022-09-30T06:08:31;7.57;;;4.78;;
61385;SDS011;47256;18.904;-99.054;2022-09-30T06:10:59;12.00;;;4.70;;
61385;SDS011;47256;18.904;-99.054;2022-09-30T06:13:26;9.95;;;4.35;;
61385;SDS011;47256;18.904;-99.054;2022-09-30T06:15:55;14.10;;;4.20;;
61385;SDS011;47256;18.904;-99.054;2022-09-30T06:18:23;9.70;;;4.57;;
61385;SDS011;47256;18.904;-99.054;2022-09-30T06:20:58;7.53;;;3.95;;
61385;SDS011;47256;18.904;-99.054;2022-09-30T06:23:28;5.13;;;3.65;;
61385;SDS011;47256;18.904;-99.054;2022-09-30T06:26:00;6.35;;;4.10;;
61385;SDS011;47256;18.904;-99.054;2022-09-30T06:28:29;10.23;;;4.32;;
61385;SDS011;47256;18.904;-99.054;2022-09-30T06:31:00;11.32;;;4.75;;
61385;SDS011;47256;18.904;-99.054;2022-09-30T06:33:28;8.00;;;3.78;;
61385;SDS011;47256;18.904;-99.054;2022-09-30T06:35:56;6.35;;;4.32;;
61385;SDS011;47256;18.904;-99.054;2022-09-30T06:38:34;6.05;;;3.95;;
61385;SDS011;47256;18.904;-99.054;2022-09-30T06:41:02;9.50;;;4.30;;
61385;SDS011;47256;18.904;-99.054;2022-09-30T06:43:30;13.25;;;4.57;;
61385;SDS011;47256;18.904;-99.054;2022-09-30T06:45:57;7.53;;;4.00;;
61385;SDS011;47256;18.904;-99.054;2022-09-30T06:48:25;8.48;;;4.40;;
61385;SDS011;47256;18.904;-99.054;2022-09-30T06:53:29;13.83;;;4.53;;
61385;SDS011;47256;18.904;-99.054;2022-09-30T06:55:57;9.75;;;4.45;;
61385;SDS011;47256;18.904;-99.054;2022-09-30T06:58:24;16.38;;;4.47;;
61385;SDS011;47256;18.904;-99.054;2022-09-30T07:01:03;6.22;;;4.07;;
61385;SDS011;47256;18.904;-99.054;2022-09-30T07:03:34;6.53;;;4.40;;
61385;SDS011;47256;18.904;-99.054;2022-09-30T07:06:05;9.60;;;4.50;;
61385;SDS011;47256;18.904;-99.054;2022-09-30T07:08:37;6.50;;;4.18;;
61385;SDS011;47256;18.904;-99.054;2022-09-30T07:11:08;8.18;;;5.47;;
61385;SDS011;47256;18.904;-99.054;2022-09-30T07:13:42;8.65;;;4.30;;
61385;SDS011;47256;18.904;-99.054;2022-09-30T07:16:11;7.32;;;4.38;;
61385;SDS011;47256;18.904;-99.054;2022-09-30T07:18:40;13.75;;;5.45;;
61385;SDS011;47256;18.904;-99.054;2022-09-30T07:21:13;13.38;;;4.90;;
61385;SDS011;47256;18.904;-99.054;2022-09-30T07:23:41;8.32;;;4.45;;
61385;SDS011;47256;18.904;-99.054;2022-09-30T07:26:14;9.60;;;4.20;;
61385;SDS011;47256;18.904;-99.054;2022-09-30T07:28:43;10.60;;;4.00;;
61385;SDS011;47256;18.904;-99.054;2022-09-30T07:33:44;12.13;;;4.93;;
61385;SDS011;47256;18.904;-99.054;2022-09-30T07:36:13;8.35;;;4.63;;
61385;SDS011;47256;18.904;-99.054;2022-09-30T07:38:45;14.23;;;4.57;;
61385;SDS011;47256;18.904;-99.054;2022-09-30T07:41:18;8.40;;;4.75;;
61385;SDS011;47256;18.904;-99.054;2022-09-30T07:43:51;19.38;;;6.78;;
61385;SDS011;47256;18.904;-99.054;2022-09-30T07:46:23;9.18;;;4.60;;
61385;SDS011;47256;18.904;-99.054;2022-09-30T07:48:57;10.43;;;5.60;;
61385;SDS011;47256;18.904;-99.054;2022-09-30T07:51:37;9.98;;;5.00;;
61385;SDS011;47256;18.904;-99.054;2022-09-30T07:54:08;12.23;;;5.07;;
61385;SDS011;47256;18.904;-99.054;2022-09-30T07:56:38;8.75;;;4.95;;
61385;SDS011;47256;18.904;-99.054;2022-09-30T07:59:09;5.05;;;4.13;;
61385;SDS011;47256;18.904;-99.054;2022-09-30T08:01:37;8.52;;;4.85;;
61385;SDS011;47256;18.904;-99.054;2022-09-30T08:04:06;9.27;;;4.90;;
61385;SDS011;47256;18.904;-99.054;2022-09-30T08:06:37;9.32;;;5.00;;
61385;SDS011;47256;18.904;-99.054;2022-09-30T08:09:07;10.27;;;4.32;;
61385;SDS011;47256;18.904;-99.054;2022-09-30T08:11:35;8.35;;;5.13;;
61385;SDS011;47256;18.904;-99.054;2022-09-30T08:14:04;7.25;;;4.35;;
61385;SDS011;47256;18.904;-99.054;2022-09-30T08:16:31;6.88;;;5.18;;
61385;SDS011;47256;18.904;-99.054;2022-09-30T08:18:59;11.43;;;5.10;;
61385;SDS011;47256;18.904;-99.054;2022-09-30T08:21:27;13.48;;;5.25;;
61385;SDS011;47256;18.904;-99.054;2022-09-30T08:23:55;17.02;;;5.13;;
61385;SDS011;47256;18.904;-99.054;2022-09-30T08:26:24;24.65;;;6.95;;
61385;SDS011;47256;18.904;-99.054;2022-09-30T08:28:51;8.50;;;4.82;;
61385;SDS011;47256;18.904;-99.054;2022-09-30T08:31:19;9.07;;;5.50;;
61385;SDS011;47256;18.904;-99.054;2022-09-30T08:33:48;5.82;;;5.18;;
61385;SDS011;47256;18.904;-99.054;2022-09-30T08:36:16;10.40;;;6.00;;
61385;SDS011;47256;18.904;-99.054;2022-09-30T08:38:46;10.52;;;5.45;;
61385;SDS011;47256;18.904;-99.054;2022-09-30T08:44:03;16.77;;;5.68;;
61385;SDS011;47256;18.904;-99.054;2022-09-30T08:55:05;9.88;;;5.30;;
61385;SDS011;47256;18.904;-99.054;2022-09-30T08:57:35;12.18;;;6.13;;
61385;SDS011;47256;18.904;-99.054;2022-09-30T09:00:13;13.30;;;6.18;;
61385;SDS011;47256;18.904;-99.054;2022-09-30T09:02:43;8.18;;;5.85;;
61385;SDS011;47256;18.904;-99.054;2022-09-30T09:09:22;12.43;;;5.72;;
61385;SDS011;47256;18.904;-99.054;2022-09-30T09:11:36;9.48;;;6.35;;
61385;SDS011;47256;18.904;-99.054;2022-09-30T09:14:34;8.35;;;5.68;;
61385;SDS011;47256;18.904;-99.054;2022-09-30T09:20:12;8.88;;;5.43;;
61385;SDS011;47256;18.904;-99.054;2022-09-30T09:22:46;13.68;;;5.70;;
61385;SDS011;47256;18.904;-99.054;2022-09-30T09:25:17;11.52;;;5.47;;
61385;SDS011;47256;18.904;-99.054;2022-09-30T09:30:21;8.00;;;5.03;;
61385;SDS011;47256;18.904;-99.054;2022-09-30T09:32:56;8.43;;;5.13;;
61385;SDS011;47256;18.904;-99.054;2022-09-30T09:46:32;7.55;;;5.07;;
61385;SDS011;47256;18.904;-99.054;2022-09-30T09:51:47;7.60;;;5.20;;
61385;SDS011;47256;18.904;-99.054;2022-09-30T09:54:25;9.48;;;5.57;;
61385;SDS011;47256;18.904;-99.054;2022-09-30T09:56:55;10.43;;;5.93;;
61385;SDS011;47256;18.904;-99.054;2022-09-30T09:59:32;14.60;;;5.72;;
61385;SDS011;47256;18.904;-99.054;2022-09-30T10:01:59;9.35;;;6.22;;
61385;SDS011;47256;18.904;-99.054;2022-09-30T10:04:29;9.52;;;5.75;;
61385;SDS011;47256;18.904;-99.054;2022-09-30T10:06:58;10.23;;;6.25;;
61385;SDS011;47256;18.904;-99.054;2022-09-30T10:09:37;7.18;;;5.35;;
61385;SDS011;47256;18.904;-99.054;2022-09-30T10:14:39;13.93;;;5.85;;
61385;SDS011;47256;18.904;-99.054;2022-09-30T10:19:59;13.80;;;5.53;;
61385;SDS011;47256;18.904;-99.054;2022-09-30T10:22:49;6.47;;;4.68;;
61385;SDS011;47256;18.904;-99.054;2022-09-30T10:25:25;9.20;;;4.50;;
61385;SDS011;47256;18.904;-99.054;2022-09-30T10:33:13;11.70;;;6.35;;
61385;SDS011;47256;18.904;-99.054;2022-09-30T10:36:07;11.55;;;5.53;;
61385;SDS011;47256;18.904;-99.054;2022-09-30T10:38:36;6.75;;;4.85;;
61385;SDS011;47256;18.904;-99.054;2022-09-30T10:41:11;12.20;;;5.20;;
61385;SDS011;47256;18.904;-99.054;2022-09-30T10:43:41;9.10;;;4.47;;
61385;SDS011;47256;18.904;-99.054;2022-09-30T10:46:12;8.85;;;4.80;;
61385;SDS011;47256;18.904;-99.054;2022-09-30T10:48:49;9.98;;;5.68;;
61385;SDS011;47256;18.904;-99.054;2022-09-30T10:51:29;16.10;;;5.55;;
61385;SDS011;47256;18.904;-99.054;2022-09-30T10:53:59;6.50;;;4.68;;
61385;SDS011;47256;18.904;-99.054;2022-09-30T10:56:35;8.30;;;5.10;;
61385;SDS011;47256;18.904;-99.054;2022-09-30T10:59:06;11.55;;;5.35;;
61385;SDS011;47256;18.904;-99.054;2022-09-30T11:01:50;9.57;;;4.90;;
61385;SDS011;47256;18.904;-99.054;2022-09-30T11:04:30;9.57;;;4.95;;
61385;SDS011;47256;18.904;-99.054;2022-09-30T11:10:17;14.02;;;5.30;;
61385;SDS011;47256;18.904;-99.054;2022-09-30T11:21:05;9.25;;;5.07;;
61385;SDS011;47256;18.904;-99.054;2022-09-30T11:23:45;18.23;;;5.28;;
61385;SDS011;47256;18.904;-99.054;2022-09-30T11:26:30;10.48;;;6.13;;
61385;SDS011;47256;18.904;-99.054;2022-09-30T11:29:07;14.20;;;5.35;;
61385;SDS011;47256;18.904;-99.054;2022-09-30T11:38:08;12.70;;;5.32;;
61385;SDS011;47256;18.904;-99.054;2022-09-30T11:43:35;11.60;;;5.30;;
61385;SDS011;47256;18.904;-99.054;2022-09-30T11:57:18;18.00;;;5.35;;
61385;SDS011;47256;18.904;-99.054;2022-09-30T12:00:00;11.85;;;5.68;;
61385;SDS011;47256;18.904;-99.054;2022-09-30T12:07:58;10.98;;;5.95;;
61385;SDS011;47256;18.904;-99.054;2022-09-30T12:10:38;9.40;;;5.75;;
61385;SDS011;47256;18.904;-99.054;2022-09-30T12:13:45;15.75;;;5.78;;
61385;SDS011;47256;18.904;-99.054;2022-09-30T12:16:16;9.95;;;5.63;;
61385;SDS011;47256;18.904;-99.054;2022-09-30T12:21:35;9.65;;;6.00;;
61385;SDS011;47256;18.904;-99.054;2022-09-30T12:24:15;17.05;;;5.40;;
61385;SDS011;47256;18.904;-99.054;2022-09-30T12:26:49;11.77;;;5.28;;
61385;SDS011;47256;18.904;-99.054;2022-09-30T12:29:32;13.02;;;5.57;;
61385;SDS011;47256;18.904;-99.054;2022-09-30T12:49:03;12.40;;;5.30;;
61385;SDS011;47256;18.904;-99.054;2022-09-30T12:51:41;8.30;;;5.35;;
61385;SDS011;47256;18.904;-99.054;2022-09-30T12:54:15;17.30;;;6.28;;
61385;SDS011;47256;18.904;-99.054;2022-09-30T12:56:46;9.82;;;4.95;;
61385;SDS011;47256;18.904;-99.054;2022-09-30T12:59:23;9.10;;;5.40;;
61385;SDS011;47256;18.904;-99.054;2022-09-30T13:02:01;9.65;;;5.07;;
61385;SDS011;47256;18.904;-99.054;2022-09-30T13:04:32;11.43;;;6.32;;
61385;SDS011;47256;18.904;-99.054;2022-09-30T13:07:12;14.27;;;5.60;;
61385;SDS011;47256;18.904;-99.054;2022-09-30T13:12:50;12.90;;;5.55;;
61385;SDS011;47256;18.904;-99.054;2022-09-30T13:15:51;18.73;;;6.25;;
61385;SDS011;47256;18.904;-99.054;2022-09-30T13:20:55;14.80;;;5.32;;
61385;SDS011;47256;18.904;-99.054;2022-09-30T13:23:55;6.68;;;5.07;;
61385;SDS011;47256;18.904;-99.054;2022-09-30T13:26:30;12.00;;;5.10;;
61385;SDS011;47256;18.904;-99.054;2022-09-30T13:31:30;14.45;;;6.15;;
61385;SDS011;47256;18.904;-99.054;2022-09-30T13:34:23;15.85;;;6.30;;
61385;SDS011;47256;18.904;-99.054;2022-09-30T13:37:04;10.18;;;6.50;;
61385;SDS011;47256;18.904;-99.054;2022-09-30T13:39:53;26.63;;;6.05;;
61385;SDS011;47256;18.904;-99.054;2022-09-30T13:42:25;13.60;;;6.32;;
61385;SDS011;47256;18.904;-99.054;2022-09-30T13:45:02;17.30;;;6.65;;
61385;SDS011;47256;18.904;-99.054;2022-09-30T13:47:42;14.23;;;6.35;;
61385;SDS011;47256;18.904;-99.054;2022-09-30T13:50:18;18.33;;;6.20;;
61385;SDS011;47256;18.904;-99.054;2022-09-30T13:52:58;17.02;;;7.68;;
61385;SDS011;47256;18.904;-99.054;2022-09-30T13:55:40;15.45;;;6.85;;
61385;SDS011;47256;18.904;-99.054;2022-09-30T14:09:46;19.27;;;10.55;;
61385;SDS011;47256;18.904;-99.054;2022-09-30T14:17:42;24.15;;;9.50;;
61385;SDS011;47256;18.904;-99.054;2022-09-30T14:23:13;19.45;;;9.23;;
61385;SDS011;47256;18.904;-99.054;2022-09-30T14:25:44;15.93;;;9.55;;
61385;SDS011;47256;18.904;-99.054;2022-09-30T14:28:30;14.70;;;9.60;;
61385;SDS011;47256;18.904;-99.054;2022-09-30T14:31:13;30.35;;;9.50;;
61385;SDS011;47256;18.904;-99.054;2022-09-30T14:33:42;14.15;;;8.95;;
61385;SDS011;47256;18.904;-99.054;2022-09-30T14:36:16;16.75;;;9.80;;
61385;SDS011;47256;18.904;-99.054;2022-09-30T14:38:46;20.40;;;10.02;;
61385;SDS011;47256;18.904;-99.054;2022-09-30T14:41:20;25.95;;;9.18;;
61385;SDS011;47256;18.904;-99.054;2022-09-30T14:43:50;24.58;;;9.65;;
61385;SDS011;47256;18.904;-99.054;2022-09-30T14:48:55;16.90;;;8.45;;
61385;SDS011;47256;18.904;-99.054;2022-09-30T14:51:33;20.00;;;8.30;;
61385;SDS011;47256;18.904;-99.054;2022-09-30T14:54:02;13.05;;;7.40;;
61385;SDS011;47256;18.904;-99.054;2022-09-30T14:56:33;17.77;;;7.78;;
61385;SDS011;47256;18.904;-99.054;2022-09-30T14:59:15;17.25;;;8.95;;
61385;SDS011;47256;18.904;-99.054;2022-09-30T15:01:49;15.00;;;8.20;;
61385;SDS011;47256;18.904;-99.054;2022-09-30T15:04:25;13.90;;;7.57;;
61385;SDS011;47256;18.904;-99.054;2022-09-30T15:06:57;15.73;;;9.05;;
61385;SDS011;47256;18.904;-99.054;2022-09-30T15:09:33;22.75;;;12.05;;
61385;SDS011;47256;18.904;-99.054;2022-09-30T15:12:12;20.45;;;10.38;;
61385;SDS011;47256;18.904;-99.054;2022-09-30T15:15:23;20.38;;;7.20;;
61385;SDS011;47256;18.904;-99.054;2022-09-30T15:20:59;13.40;;;5.70;;
61385;SDS011;47256;18.904;-99.054;2022-09-30T15:23:49;10.20;;;7.20;;
61385;SDS011;47256;18.904;-99.054;2022-09-30T15:26:25;20.98;;;7.57;;
61385;SDS011;47256;18.904;-99.054;2022-09-30T15:28:53;15.82;;;5.90;;
61385;SDS011;47256;18.904;-99.054;2022-09-30T15:31:27;8.60;;;4.90;;
61385;SDS011;47256;18.904;-99.054;2022-09-30T15:34:04;12.07;;;8.63;;
61385;SDS011;47256;18.904;-99.054;2022-09-30T15:37:00;20.83;;;8.07;;
61385;SDS011;47256;18.904;-99.054;2022-09-30T15:39:33;20.80;;;7.78;;
61385;SDS011;47256;18.904;-99.054;2022-09-30T15:45:04;15.27;;;8.02;;
61385;SDS011;47256;18.904;-99.054;2022-09-30T15:48:03;13.70;;;7.75;;
61385;SDS011;47256;18.904;-99.054;2022-09-30T15:53:31;20.75;;;6.60;;
61385;SDS011;47256;18.904;-99.054;2022-09-30T15:58:53;9.20;;;6.13;;
61385;SDS011;47256;18.904;-99.054;2022-09-30T16:01:32;13.68;;;5.88;;
61385;SDS011;47256;18.904;-99.054;2022-09-30T16:04:20;10.55;;;5.90;;
61385;SDS011;47256;18.904;-99.054;2022-09-30T16:06:57;11.57;;;6.95;;
61385;SDS011;47256;18.904;-99.054;2022-09-30T16:09:37;9.70;;;7.18;;
61385;SDS011;47256;18.904;-99.054;2022-09-30T16:12:08;14.70;;;6.20;;
61385;SDS011;47256;18.904;-99.054;2022-09-30T16:14:50;9.52;;;6.57;;
61385;SDS011;47256;18.904;-99.054;2022-09-30T16:17:36;13.55;;;5.97;;
61385;SDS011;47256;18.904;-99.054;2022-09-30T16:25:26;11.20;;;7.05;;
61385;SDS011;47256;18.904;-99.054;2022-09-30T16:28:10;12.05;;;6.75;;
61385;SDS011;47256;18.904;-99.054;2022-09-30T16:30:46;11.57;;;6.95;;
61385;SDS011;47256;18.904;-99.054;2022-09-30T16:33:19;14.10;;;5.90;;
61385;SDS011;47256;18.904;-99.054;2022-09-30T16:35:46;10.35;;;6.65;;
61385;SDS011;47256;18.904;-99.054;2022-09-30T16:38:16;12.88;;;7.07;;
61385;SDS011;47256;18.904;-99.054;2022-09-30T16:40:46;16.52;;;8.00;;
61385;SDS011;47256;18.904;-99.054;2022-09-30T16:43:15;18.42;;;10.18;;
61385;SDS011;47256;18.904;-99.054;2022-09-30T16:45:45;14.32;;;8.60;;
61385;SDS011;47256;18.904;-99.054;2022-09-30T16:48:13;14.38;;;7.07;;
61385;SDS011;47256;18.904;-99.054;2022-09-30T16:50:52;12.18;;;7.43;;
61385;SDS011;47256;18.904;-99.054;2022-09-30T16:53:21;12.63;;;7.82;;
61385;SDS011;47256;18.904;-99.054;2022-09-30T16:55:50;9.05;;;6.35;;
61385;SDS011;47256;18.904;-99.054;2022-09-30T16:58:17;13.95;;;6.97;;
61385;SDS011;47256;18.904;-99.054;2022-09-30T17:00:44;11.43;;;6.65;;
61385;SDS011;47256;18.904;-99.054;2022-09-30T17:03:13;17.08;;;8.20;;
61385;SDS011;47256;18.904;-99.054;2022-09-30T17:05:42;11.43;;;7.93;;
61385;SDS011;47256;18.904;-99.054;2022-09-30T17:08:15;12.07;;;7.78;;
61385;SDS011;47256;18.904;-99.054;2022-09-30T17:10:42;9.02;;;6.10;;
61385;SDS011;47256;18.904;-99.054;2022-09-30T17:13:12;18.23;;;8.65;;
61385;SDS011;47256;18.904;-99.054;2022-09-30T17:15:41;10.45;;;6.78;;
61385;SDS011;47256;18.904;-99.054;2022-09-30T17:18:14;17.73;;;6.75;;
61385;SDS011;47256;18.904;-99.054;2022-09-30T17:20:44;15.45;;;7.20;;
61385;SDS011;47256;18.904;-99.054;2022-09-30T17:23:22;16.20;;;7.40;;
61385;SDS011;47256;18.904;-99.054;2022-09-30T17:25:50;14.80;;;7.95;;
61385;SDS011;47256;18.904;-99.054;2022-09-30T17:28:19;12.27;;;6.68;;
61385;SDS011;47256;18.904;-99.054;2022-09-30T17:30:48;12.90;;;8.10;;
61385;SDS011;47256;18.904;-99.054;2022-09-30T17:33:15;9.80;;;6.80;;
61385;SDS011;47256;18.904;-99.054;2022-09-30T17:35:56;11.90;;;8.70;;
61385;SDS011;47256;18.904;-99.054;2022-09-30T17:38:27;9.93;;;6.82;;
61385;SDS011;47256;18.904;-99.054;2022-09-30T17:40:58;16.95;;;9.00;;
61385;SDS011;47256;18.904;-99.054;2022-09-30T17:43:45;14.05;;;8.32;;
61385;SDS011;47256;18.904;-99.054;2022-09-30T17:46:14;11.85;;;7.97;;
61385;SDS011;47256;18.904;-99.054;2022-09-30T17:48:44;12.13;;;8.65;;
61385;SDS011;47256;18.904;-99.054;2022-09-30T17:51:11;12.90;;;9.27;;
61385;SDS011;47256;18.904;-99.054;2022-09-30T17:53:44;8.70;;;7.35;;
61385;SDS011;47256;18.904;-99.054;2022-09-30T17:56:16;9.48;;;7.45;;
61385;SDS011;47256;18.904;-99.054;2022-09-30T17:58:46;18.48;;;8.05;;
61385;SDS011;47256;18.904;-99.054;2022-09-30T18:01:16;14.73;;;8.40;;
61385;SDS011;47256;18.904;-99.054;2022-09-30T18:03:46;9.88;;;8.20;;
61385;SDS011;47256;18.904;-99.054;2022-09-30T18:06:18;15.02;;;8.45;;
61385;SDS011;47256;18.904;-99.054;2022-09-30T18:08:49;12.20;;;7.65;;
61385;SDS011;47256;18.904;-99.054;2022-09-30T18:11:18;16.83;;;9.18;;
61385;SDS011;47256;18.904;-99.054;2022-09-30T18:13:55;13.05;;;9.27;;
61385;SDS011;47256;18.904;-99.054;2022-09-30T18:16:24;12.05;;;8.40;;
61385;SDS011;47256;18.904;-99.054;2022-09-30T18:18:58;15.40;;;9.63;;
61385;SDS011;47256;18.904;-99.054;2022-09-30T18:21:27;9.95;;;8.48;;
61385;SDS011;47256;18.904;-99.054;2022-09-30T18:23:59;11.85;;;9.18;;
61385;SDS011;47256;18.904;-99.054;2022-09-30T18:26:27;11.50;;;8.65;;
61385;SDS011;47256;18.904;-99.054;2022-09-30T18:28:55;11.48;;;8.15;;
61385;SDS011;47256;18.904;-99.054;2022-09-30T18:31:29;13.02;;;8.98;;
61385;SDS011;47256;18.904;-99.054;2022-09-30T18:34:02;22.30;;;8.93;;